Indian Springs, Nevada
Current Conditions -  °F | °C
As of 4:58 PM on Friday 28 Nov 2014 (Local Time) from KINS Reporting Station
Clear Clear  
Wind Chill: 56°   Ceiling: Unl
Heat Index: 56°   Visibility: 10mi
Dew Point: 17°   Wind: 1mph
Humidity: 22%   Direction: 120°ESE
Pressure: 29.93"   Gusts: NA
Location:  36.57°N, 115.67°W
Report Text: KINS 290058Z AUTO 12001KT 10SM CLR 13/M09 A2993 RMK AO2 SLP128 T01311086 $
Loading
Personal Weather Stations






























Interactive Weather Map New forecast layout! Learn more

10-Day Weather Forecast

Advertisements
Track Severe Weather on mobile